createdAt,value
2022-09-06T00:02:54.445Z,20.20
2022-09-06T00:05:56.200Z,20.05
2022-09-06T00:08:59.701Z,20.11
2022-09-06T00:12:01.427Z,20.11
2022-09-06T00:15:03.391Z,20.07
2022-09-06T00:18:07.015Z,20.02
2022-09-06T00:21:15.658Z,20.07
2022-09-06T00:24:18.705Z,20.13
2022-09-06T00:27:20.405Z,20.07
2022-09-06T00:30:22.517Z,20.02
2022-09-06T00:33:24.812Z,19.99
2022-09-06T00:36:26.519Z,20.04
2022-09-06T00:39:29.629Z,20.00
2022-09-06T00:42:31.417Z,19.85
2022-09-06T00:45:33.443Z,19.99
2022-09-06T00:48:37.294Z,20.00
2022-09-06T00:51:39.905Z,19.99
2022-09-06T00:54:43.828Z,20.03
2022-09-06T00:57:46.558Z,19.74
2022-09-06T01:00:48.216Z,19.69
2022-09-06T01:03:49.937Z,19.61
2022-09-06T01:07:02.545Z,19.85
2022-09-06T01:10:23.901Z,19.74
2022-09-06T01:13:34.654Z,19.53
2022-09-06T01:16:43.547Z,19.74
2022-09-06T01:20:13.438Z,19.74
2022-09-06T01:23:52.989Z,19.67
2022-09-06T01:27:34.369Z,19.63
2022-09-06T01:30:44.578Z,19.52
2022-09-06T01:33:51.901Z,19.56
2022-09-06T01:37:13.458Z,19.59
2022-09-06T01:40:15.205Z,19.54
2022-09-06T01:43:23.902Z,19.64
2022-09-06T01:46:33.405Z,19.94
2022-09-06T01:49:48.614Z,19.96
2022-09-06T01:53:02.435Z,20.01
2022-09-06T01:56:11.328Z,20.26
2022-09-06T01:59:33.532Z,20.39
2022-09-06T02:02:50.384Z,20.54
2022-09-06T02:05:55.618Z,20.72
2022-09-06T02:09:03.662Z,20.77
2022-09-06T02:12:06.924Z,20.91
2022-09-06T02:15:13.432Z,21.06
2022-09-06T02:18:19.945Z,21.07
2022-09-06T02:21:32.177Z,21.08
2022-09-06T02:24:38.739Z,21.02
2022-09-06T02:27:41.383Z,21.11
2022-09-06T02:30:49.049Z,21.07
2022-09-06T02:33:52.344Z,21.12
2022-09-06T02:36:54.705Z,21.15
2022-09-06T02:39:56.638Z,21.03
2022-09-06T02:42:58.484Z,21.02
2022-09-06T02:46:00.271Z,21.13
2022-09-06T02:49:03.770Z,21.18
2022-09-06T02:52:05.646Z,21.16
2022-09-06T02:55:08.097Z,21.07
2022-09-06T02:58:11.815Z,20.94
2022-09-06T03:01:13.814Z,21.03
2022-09-06T03:04:16.954Z,21.11
2022-09-06T03:07:18.738Z,20.88
2022-09-06T03:10:20.937Z,20.84
2022-09-06T03:13:23.606Z,20.50
2022-09-06T03:16:25.397Z,20.34
2022-09-06T03:19:28.410Z,19.97
2022-09-06T03:22:30.162Z,19.87
2022-09-06T03:25:31.925Z,19.74
2022-09-06T03:28:33.902Z,19.78
2022-09-06T03:31:35.590Z,19.99
2022-09-06T03:34:38.611Z,19.73
2022-09-06T03:37:40.338Z,19.76
2022-09-06T03:40:44.588Z,19.90
2022-09-06T03:43:46.362Z,20.11
2022-09-06T03:46:48.129Z,20.07
2022-09-06T03:49:51.490Z,20.09
2022-09-06T03:52:53.215Z,20.53
2022-09-06T03:55:57.541Z,20.60
2022-09-06T03:58:59.182Z,20.60
2022-09-06T04:02:01.090Z,20.67
2022-09-06T04:05:04.706Z,20.60
2022-09-06T04:08:06.736Z,20.56
2022-09-06T04:11:08.785Z,20.54
2022-09-06T04:14:10.457Z,20.42
2022-09-06T04:17:12.517Z,20.19
2022-09-06T04:20:16.378Z,20.13
2022-09-06T04:23:19.504Z,20.27
2022-09-06T04:26:21.243Z,20.13
2022-09-06T04:29:23.101Z,20.30
2022-09-06T04:32:24.792Z,20.39
2022-09-06T04:35:27.808Z,20.19
2022-09-06T04:38:34.593Z,20.38
2022-09-06T04:41:36.391Z,20.55
2022-09-06T04:44:38.135Z,20.71
2022-09-06T04:47:40.054Z,20.78
2022-09-06T04:50:43.948Z,20.80
2022-09-06T04:53:46.324Z,20.80
2022-09-06T04:56:48.114Z,21.07
2022-09-06T04:59:49.840Z,21.10
2022-09-06T05:02:51.545Z,21.18
2022-09-06T05:06:04.001Z,21.18
2022-09-06T05:09:06.007Z,21.13
2022-09-06T05:12:07.917Z,20.95
2022-09-06T05:15:10.131Z,20.88
2022-09-06T05:18:15.554Z,20.54
2022-09-06T05:21:19.261Z,20.37
2022-09-06T05:24:21.074Z,20.36
2022-09-06T05:27:22.771Z,20.26
2022-09-06T05:30:24.634Z,20.16
2022-09-06T05:33:26.321Z,20.20
2022-09-06T05:36:30.568Z,20.07
2022-09-06T05:39:32.157Z,20.01
2022-09-06T05:42:34.063Z,19.82
2022-09-06T05:45:35.914Z,19.81
2022-09-06T05:48:38.065Z,19.74
2022-09-06T05:51:41.532Z,19.52
2022-09-06T05:54:43.236Z,19.52
2022-09-06T05:57:44.925Z,19.41
2022-09-06T06:00:46.950Z,19.47
2022-09-06T06:03:53.906Z,19.66
2022-09-06T06:06:57.050Z,19.76
2022-09-06T06:09:58.825Z,19.92
2022-09-06T06:13:00.571Z,19.98
2022-09-06T06:16:03.354Z,20.04
2022-09-06T06:19:05.384Z,20.03
2022-09-06T06:22:08.527Z,20.00
2022-09-06T06:25:12.548Z,20.04
2022-09-06T06:28:14.463Z,20.12
2022-09-06T06:31:16.573Z,20.16
2022-09-06T06:34:21.765Z,20.19
2022-09-06T06:37:24.870Z,20.19
2022-09-06T06:40:26.588Z,20.24
2022-09-06T06:43:28.746Z,20.14
2022-09-06T06:46:32.224Z,20.15
2022-09-06T06:49:34.011Z,20.16
2022-09-06T06:52:37.137Z,20.15
2022-09-06T06:55:39.167Z,20.22
2022-09-06T06:58:41.218Z,20.21
2022-09-06T07:01:43.139Z,20.20
2022-09-06T07:04:44.964Z,20.26
2022-09-06T07:07:48.071Z,20.37
2022-09-06T07:10:49.832Z,20.40
2022-09-06T07:13:51.713Z,20.24
2022-09-06T07:16:58.190Z,20.43
2022-09-06T07:20:15.929Z,20.45
2022-09-06T07:26:41.831Z,20.54
2022-09-06T07:29:43.698Z,20.58
2022-09-06T07:32:45.479Z,20.81
2022-09-06T07:35:58.122Z,20.82
2022-09-06T07:39:01.480Z,20.69
2022-09-06T07:42:03.322Z,20.72
2022-09-06T07:45:05.878Z,20.78
2022-09-06T07:48:07.632Z,21.02
2022-09-06T07:51:11.345Z,21.11
2022-09-06T07:54:31.157Z,20.97
2022-09-06T07:57:33.239Z,20.92
2022-09-06T08:00:35.183Z,21.17
2022-09-06T08:03:36.947Z,21.24
2022-09-06T08:10:04.350Z,21.36
2022-09-06T08:13:06.089Z,21.44
2022-09-06T08:16:09.703Z,21.44
2022-09-06T08:19:12.385Z,21.53
2022-09-06T08:22:14.105Z,21.32
2022-09-06T08:25:17.274Z,21.30
2022-09-06T08:28:19.002Z,21.36
2022-09-06T08:31:21.038Z,21.41
2022-09-06T08:34:22.794Z,21.68
2022-09-06T08:37:25.270Z,21.83
2022-09-06T08:40:28.437Z,21.80
2022-09-06T08:43:30.110Z,21.85
2022-09-06T08:46:37.517Z,21.91
2022-09-06T08:49:42.069Z,22.00
2022-09-06T08:53:15.563Z,22.14
2022-09-06T08:56:23.219Z,22.27
2022-09-06T08:59:25.141Z,22.20
2022-09-06T09:02:28.185Z,22.28
2022-09-06T09:05:32.947Z,22.61
2022-09-06T09:08:42.995Z,22.77
2022-09-06T09:11:49.977Z,22.57
2022-09-06T09:14:57.469Z,22.66
2022-09-06T09:18:00.107Z,22.98
2022-09-06T09:21:02.734Z,23.25
2022-09-06T09:24:06.958Z,23.29
2022-09-06T09:27:11.396Z,23.15
2022-09-06T09:33:38.610Z,23.73
2022-09-06T09:36:40.871Z,24.03
2022-09-06T09:39:43.099Z,24.21
2022-09-06T09:42:46.275Z,24.18
2022-09-06T09:46:08.676Z,24.30
2022-09-06T09:49:11.165Z,24.59
2022-09-06T09:52:14.852Z,24.68
2022-09-06T09:55:23.371Z,25.18
2022-09-06T09:58:33.212Z,25.27
2022-09-06T10:01:36.652Z,25.53
2022-09-06T10:04:45.885Z,25.40
2022-09-06T10:07:50.151Z,25.57
2022-09-06T10:10:52.269Z,25.70
2022-09-06T10:14:10.755Z,25.67
2022-09-06T10:17:27.749Z,26.18
2022-09-06T10:20:35.780Z,26.27
2022-09-06T10:27:19.473Z,25.88
2022-09-06T10:30:22.605Z,26.17
2022-09-06T10:33:33.549Z,26.45
2022-09-06T10:36:38.450Z,26.83
2022-09-06T10:39:49.230Z,27.09
2022-09-06T10:42:55.232Z,27.05
2022-09-06T10:46:02.577Z,26.53
2022-09-06T10:49:08.310Z,27.17
2022-09-06T10:52:15.476Z,27.07
2022-09-06T10:55:19.425Z,27.01
2022-09-06T10:58:27.662Z,27.36
2022-09-06T11:01:38.188Z,27.46
2022-09-06T11:11:36.021Z,27.65
2022-09-06T11:14:39.412Z,27.78
2022-09-06T11:17:47.897Z,27.70
2022-09-06T11:21:03.262Z,27.82
2022-09-06T11:24:12.161Z,28.19
2022-09-06T11:27:22.982Z,28.52
2022-09-06T11:30:27.016Z,28.54
2022-09-06T11:33:31.020Z,28.56
2022-09-06T11:36:36.643Z,28.46
2022-09-06T11:43:14.803Z,28.48
2022-09-06T11:46:53.044Z,28.93
2022-09-06T11:49:56.694Z,29.57
2022-09-06T11:53:12.772Z,29.54
2022-09-06T11:56:25.817Z,29.08
2022-09-06T11:59:36.849Z,29.74
2022-09-06T12:02:40.796Z,29.54
2022-09-06T12:06:15.290Z,29.50
2022-09-06T12:09:27.690Z,29.96
2022-09-06T12:12:40.688Z,29.85
2022-09-06T12:15:45.853Z,29.85
2022-09-06T12:19:01.589Z,30.10
2022-09-06T12:22:43.295Z,30.25
2022-09-06T12:25:57.858Z,30.25
2022-09-06T12:28:59.984Z,29.93
2022-09-06T12:32:04.596Z,30.24
2022-09-06T12:38:37.561Z,30.21
2022-09-06T12:41:43.528Z,30.63
2022-09-06T12:44:49.774Z,30.74
2022-09-06T12:48:04.478Z,30.77
2022-09-06T12:51:07.885Z,31.00
2022-09-06T12:54:20.433Z,30.86
2022-09-06T12:57:25.161Z,31.36
2022-09-06T13:00:34.221Z,30.77
2022-09-06T13:03:40.242Z,30.60
2022-09-06T13:06:45.700Z,30.19
2022-09-06T13:09:52.572Z,30.50
2022-09-06T13:12:57.154Z,30.83
2022-09-06T13:15:58.905Z,30.63
2022-09-06T13:19:12.619Z,30.40
2022-09-06T13:22:40.254Z,30.90
2022-09-06T13:25:47.724Z,31.06
2022-09-06T13:28:49.455Z,31.46
2022-09-06T13:31:52.623Z,31.66
2022-09-06T13:34:58.163Z,31.62
2022-09-06T13:38:22.792Z,31.55
2022-09-06T13:41:41.272Z,31.97
2022-09-06T13:44:43.739Z,31.97
2022-09-06T13:47:45.588Z,31.40
2022-09-06T13:50:47.316Z,31.97
2022-09-06T13:53:50.762Z,31.71
2022-09-06T13:56:52.868Z,31.71
2022-09-06T13:59:54.529Z,30.94
2022-09-06T14:02:56.666Z,30.52
2022-09-06T14:06:00.239Z,30.05
2022-09-06T14:09:07.239Z,30.35
2022-09-06T14:12:10.497Z,31.13
2022-09-06T14:15:13.322Z,31.17
2022-09-06T14:18:15.862Z,31.59
2022-09-06T14:21:17.686Z,31.96
2022-09-06T14:24:20.929Z,32.27
2022-09-06T14:27:23.134Z,32.23
2022-09-06T14:30:24.959Z,32.15
2022-09-06T14:33:26.689Z,32.01
2022-09-06T14:36:29.956Z,31.68
2022-09-06T14:39:33.211Z,32.05
2022-09-06T14:42:35.008Z,32.31
2022-09-06T14:45:37.184Z,32.25
2022-09-06T14:48:42.091Z,31.95
2022-09-06T14:51:45.906Z,31.84
2022-09-06T14:54:49.156Z,31.49
2022-09-06T14:57:51.026Z,32.00
2022-09-06T15:00:52.911Z,31.95
2022-09-06T15:03:57.531Z,32.15
2022-09-06T15:06:59.937Z,31.95
2022-09-06T15:10:03.727Z,31.38
2022-09-06T15:13:05.502Z,31.41
2022-09-06T15:16:09.215Z,31.65
2022-09-06T15:19:10.898Z,31.63
2022-09-06T15:22:12.688Z,31.59
2022-09-06T15:25:16.216Z,31.42
2022-09-06T15:28:19.327Z,31.40
2022-09-06T15:31:21.730Z,31.39
2022-09-06T15:34:25.471Z,31.13
2022-09-06T15:37:27.327Z,31.13
2022-09-06T15:40:30.553Z,31.12
2022-09-06T15:43:32.848Z,30.91
2022-09-06T15:46:44.561Z,30.66
2022-09-06T15:49:46.390Z,30.66
2022-09-06T15:52:48.252Z,30.59
2022-09-06T15:55:57.972Z,30.20
2022-09-06T15:58:59.896Z,30.18
2022-09-06T16:02:01.829Z,30.13
2022-09-06T16:05:04.202Z,29.86
2022-09-06T16:08:06.008Z,29.64
2022-09-06T16:11:11.739Z,29.54
2022-09-06T16:14:15.763Z,29.43
2022-09-06T16:17:17.589Z,29.31
2022-09-06T16:20:19.382Z,29.18
2022-09-06T16:23:21.213Z,29.25
2022-09-06T16:26:25.763Z,29.23
2022-09-06T16:29:27.601Z,29.10
2022-09-06T16:32:29.349Z,28.95
2022-09-06T16:35:31.139Z,29.08
2022-09-06T16:38:33.665Z,29.04
2022-09-06T16:41:40.461Z,28.93
2022-09-06T16:44:42.510Z,29.07
2022-09-06T16:47:46.423Z,28.68
2022-09-06T16:50:48.004Z,28.38
2022-09-06T16:53:50.404Z,28.42
2022-09-06T16:56:53.751Z,28.30
2022-09-06T16:59:55.600Z,28.05
2022-09-06T17:02:58.568Z,28.30
2022-09-06T17:06:00.407Z,28.54
2022-09-06T17:09:02.285Z,28.27
2022-09-06T17:12:05.881Z,28.42
2022-09-06T17:15:08.544Z,28.18
2022-09-06T17:18:11.859Z,27.90
2022-09-06T17:21:13.884Z,27.89
2022-09-06T17:24:15.921Z,27.72
2022-09-06T17:27:19.379Z,27.60
2022-09-06T17:30:21.304Z,27.38
2022-09-06T17:33:23.828Z,27.23
2022-09-06T17:36:27.617Z,27.41
2022-09-06T17:39:29.542Z,27.19
2022-09-06T17:42:32.912Z,27.36
2022-09-06T17:45:39.132Z,27.32
2022-09-06T17:48:41.069Z,26.96
2022-09-06T17:51:42.830Z,26.74
2022-09-06T17:54:46.597Z,26.22
2022-09-06T17:57:49.841Z,25.79
2022-09-06T18:00:51.817Z,25.60
2022-09-06T18:03:53.646Z,25.47
2022-09-06T18:06:55.559Z,25.66
2022-09-06T18:09:57.335Z,25.46
2022-09-06T18:13:00.489Z,25.27
2022-09-06T18:16:03.712Z,25.11
2022-09-06T18:19:07.609Z,24.99
2022-09-06T18:22:09.347Z,24.92
2022-09-06T18:25:11.111Z,24.89
2022-09-06T18:28:14.722Z,24.86
2022-09-06T18:31:18.136Z,24.93
2022-09-06T18:34:19.980Z,24.85
2022-09-06T18:37:22.153Z,24.77
2022-09-06T18:40:24.011Z,24.66
2022-09-06T18:43:30.625Z,24.35
2022-09-06T18:46:36.111Z,24.38
2022-09-06T18:49:43.293Z,24.12
2022-09-06T18:52:45.861Z,23.99
2022-09-06T18:55:50.961Z,24.06
2022-09-06T18:58:58.047Z,24.02
2022-09-06T19:01:59.923Z,23.95
2022-09-06T19:05:01.720Z,23.95
2022-09-06T19:08:04.711Z,23.80
2022-09-06T19:11:09.284Z,23.92
2022-09-06T19:14:12.901Z,23.88
2022-09-06T19:17:14.705Z,23.68
2022-09-06T19:20:16.974Z,23.65
2022-09-06T19:23:19.305Z,23.94
2022-09-06T19:26:22.432Z,23.82
2022-09-06T19:29:25.611Z,23.93
2022-09-06T19:32:27.919Z,23.84
2022-09-06T19:35:29.677Z,23.91
2022-09-06T19:38:52.573Z,23.85
2022-09-06T19:41:53.532Z,24.05
2022-09-06T19:44:56.626Z,24.13
2022-09-06T19:47:58.433Z,24.25
2022-09-06T19:51:01.121Z,24.15
2022-09-06T19:54:03.858Z,24.10
2022-09-06T19:57:06.198Z,24.17
2022-09-06T20:00:10.737Z,24.02
2022-09-06T20:03:14.202Z,24.06
2022-09-06T20:06:16.213Z,24.06
2022-09-06T20:09:18.068Z,24.10
2022-09-06T20:12:20.633Z,24.17
2022-09-06T20:15:23.783Z,24.15
2022-09-06T20:18:25.999Z,24.27
2022-09-06T20:21:28.075Z,24.20
2022-09-06T20:24:29.953Z,24.12
2022-09-06T20:27:31.742Z,24.16
2022-09-06T20:30:34.887Z,24.03
2022-09-06T20:33:37.273Z,23.86
2022-09-06T20:36:39.019Z,23.89
2022-09-06T20:39:40.937Z,24.04
2022-09-06T20:42:45.839Z,24.03
2022-09-06T20:45:50.188Z,24.00
2022-09-06T20:48:52.264Z,23.91
2022-09-06T20:51:54.061Z,23.90
2022-09-06T20:54:55.834Z,23.97
2022-09-06T20:57:57.596Z,24.12
2022-09-06T21:01:06.314Z,24.22
2022-09-06T21:04:10.780Z,24.38
2022-09-06T21:07:12.525Z,24.30
2022-09-06T21:10:14.741Z,24.41
2022-09-06T21:13:16.595Z,24.15
2022-09-06T21:16:24.220Z,24.22
2022-09-06T21:19:26.568Z,24.15
2022-09-06T21:22:28.342Z,24.23
2022-09-06T21:25:30.267Z,24.23
2022-09-06T21:28:34.473Z,24.21
2022-09-06T21:31:37.886Z,24.16
2022-09-06T21:34:39.693Z,24.10
2022-09-06T21:37:41.432Z,24.35
2022-09-06T21:40:43.409Z,24.24
2022-09-06T21:43:46.118Z,24.25
2022-09-06T21:46:49.504Z,24.05
2022-09-06T21:49:51.676Z,24.26
2022-09-06T21:52:53.803Z,24.00
2022-09-06T21:56:00.140Z,24.03
2022-09-06T21:59:02.673Z,24.02
2022-09-06T22:02:06.428Z,23.90
2022-09-06T22:05:08.859Z,23.84
2022-09-06T22:08:10.635Z,24.04
2022-09-06T22:11:15.353Z,24.03
2022-09-06T22:14:17.163Z,23.73
2022-09-06T22:17:20.330Z,23.20
2022-09-06T22:20:22.766Z,22.97
2022-09-06T22:23:25.089Z,22.58
2022-09-06T22:26:28.580Z,22.39
2022-09-06T22:29:30.492Z,22.26
2022-09-06T22:32:33.772Z,22.02
2022-09-06T22:35:35.566Z,21.95
2022-09-06T22:38:37.600Z,21.82
2022-09-06T22:41:39.520Z,21.66
2022-09-06T22:44:41.217Z,21.57
2022-09-06T22:47:44.302Z,21.39
2022-09-06T22:50:46.127Z,21.51
2022-09-06T22:53:47.909Z,21.47
2022-09-06T22:56:49.849Z,21.29
2022-09-06T22:59:51.565Z,21.46
2022-09-06T23:02:54.767Z,21.57
2022-09-06T23:06:00.432Z,21.69
2022-09-06T23:09:02.194Z,21.56
2022-09-06T23:12:05.063Z,21.68
2022-09-06T23:15:07.652Z,21.44
2022-09-06T23:18:10.869Z,21.42
2022-09-06T23:21:14.626Z,21.52
2022-09-06T23:24:16.334Z,21.45
2022-09-06T23:27:18.216Z,21.39
2022-09-06T23:30:20.278Z,21.25
2022-09-06T23:33:23.445Z,21.39
2022-09-06T23:36:26.161Z,21.44
2022-09-06T23:39:28.497Z,21.33
2022-09-06T23:42:30.284Z,21.14
2022-09-06T23:45:31.959Z,20.96
2022-09-06T23:48:35.701Z,21.07
2022-09-06T23:51:37.560Z,21.03
2022-09-06T23:54:39.306Z,20.89
2022-09-06T23:57:41.068Z,21.04
